Time;durP1;ratioP1;P1;durP2;ratioP2;P2;SDS_P1;SDS_P2;PMS_P1;PMS_P2;Temp;Humidity;BMP_temperature;BMP_pressure;BME280_temperature;BME280_humidity;BME280_pressure;Samples;Min_cycle;Max_cycle;Signal;HPM_P1;HPM_P2
2023/08/11 00:02:23;;;;;;;0.10;0.10;;;;;;;17.97;75.64;101639.75;5029702;28;20025;-91
2023/08/11 00:04:51;;;;;;;0.10;0.10;;;;;;;17.89;75.74;101639.38;5029953;28;20022;-91
2023/08/11 00:07:17;;;;;;;0.25;0.20;;;;;;;17.86;76.23;101644.81;5029624;28;20025;-90
2023/08/11 00:09:42;;;;;;;0.10;0.10;;;;;;;17.89;76.60;101638.53;5029855;28;20036;-92
2023/08/11 00:12:08;;;;;;;0.10;0.10;;;;;;;17.91;76.77;101645.38;5029924;28;20483;-91
2023/08/11 00:14:33;;;;;;;0.10;0.10;;;;;;;17.88;76.15;101635.09;5029852;28;20025;-91
2023/08/11 00:16:59;;;;;;;0.10;0.10;;;;;;;18.00;75.44;101642.19;5029300;28;20392;-92
2023/08/11 00:19:25;;;;;;;0.10;0.10;;;;;;;18.02;75.47;101644.69;5028902;28;20029;-92
2023/08/11 00:21:51;;;;;;;0.10;0.10;;;;;;;17.94;75.51;101637.31;5029510;28;20399;-92
2023/08/11 00:24:16;;;;;;;0.10;0.10;;;;;;;17.98;75.71;101636.19;5030688;28;20033;-91
2023/08/11 00:26:41;;;;;;;0.10;0.10;;;;;;;17.97;75.17;101634.50;5032870;28;20030;-91
2023/08/11 00:29:07;;;;;;;0.10;0.10;;;;;;;17.80;75.94;101629.53;5033469;28;20063;-92
2023/08/11 00:31:32;;;;;;;0.10;0.10;;;;;;;17.81;75.46;101633.81;5032793;28;20072;-91
2023/08/11 00:33:58;;;;;;;0.10;0.10;;;;;;;17.85;75.21;101639.69;5033047;28;20026;-91
2023/08/11 00:36:24;;;;;;;0.10;0.10;;;;;;;17.70;75.66;101623.19;5033089;28;20084;-91
2023/08/11 00:38:49;;;;;;;0.10;0.10;;;;;;;17.72;76.13;101631.78;5033177;28;20030;-90
2023/08/11 00:41:16;;;;;;;0.20;0.20;;;;;;;17.74;76.08;101625.50;5033136;28;20487;-91
2023/08/11 00:43:44;;;;;;;0.10;0.10;;;;;;;17.77;75.43;101634.94;5032550;28;20041;-91
2023/08/11 00:46:10;;;;;;;0.10;0.10;;;;;;;17.72;75.71;101629.16;5049397;28;20483;-91
2023/08/11 00:48:41;;;;;;;0.10;0.10;;;;;;;17.75;75.69;101626.34;5032874;28;20095;-92
2023/08/11 00:51:07;;;;;;;0.10;0.10;;;;;;;17.80;75.33;101624.28;5032727;28;20030;-91
2023/08/11 00:53:36;;;;;;;0.10;0.10;;;;;;;17.82;75.85;101640.72;5032532;28;20080;-90
2023/08/11 00:56:03;;;;;;;0.10;0.10;;;;;;;17.80;75.21;101629.53;5032929;28;20784;-92
2023/08/11 00:58:28;;;;;;;0.10;0.10;;;;;;;17.83;74.72;101637.16;5032436;28;20021;-91
2023/08/11 01:00:54;;;;;;;0.10;0.10;;;;;;;17.80;74.70;101634.75;5049077;28;20497;-91
2023/08/11 01:03:19;;;;;;;0.20;0.20;;;;;;;17.79;74.62;101625.19;5032530;28;20453;-91
2023/08/11 01:05:48;;;;;;;0.20;0.20;;;;;;;17.65;74.89;101614.75;5032453;28;20025;-91
2023/08/11 01:08:25;;;;;;;0.10;0.10;;;;;;;17.72;74.92;101626.53;5032414;28;20025;-91
2023/08/11 01:11:10;;;;;;;0.10;0.10;;;;;;;17.63;75.71;101627.09;5032573;28;20040;-91
2023/08/11 01:13:37;;;;;;;0.10;0.10;;;;;;;17.70;75.49;101628.44;5032176;28;20018;-90
2023/08/11 01:16:04;;;;;;;0.10;0.10;;;;;;;17.62;75.54;101609.72;5032481;28;20032;-92
2023/08/11 01:18:30;;;;;;;0.10;0.10;;;;;;;17.68;75.67;101628.47;5032222;28;20466;-91
2023/08/11 01:20:59;;;;;;;0.10;0.10;;;;;;;17.68;75.64;101625.00;5032265;28;20026;-93
2023/08/11 01:23:24;;;;;;;0.10;0.10;;;;;;;17.71;75.56;101617.00;5031833;28;20030;-94
2023/08/11 01:25:51;;;;;;;0.10;0.10;;;;;;;17.67;75.22;101623.34;5032191;28;20022;-91
2023/08/11 01:28:17;;;;;;;0.10;0.10;;;;;;;17.68;75.61;101619.78;5031855;28;20029;-92
2023/08/11 01:30:42;;;;;;;0.10;0.10;;;;;;;17.65;75.59;101622.59;5048645;28;20025;-91
2023/08/11 01:33:08;;;;;;;0.10;0.10;;;;;;;17.67;75.39;101625.94;5032034;28;20511;-90
2023/08/11 01:35:33;;;;;;;0.10;0.10;;;;;;;17.39;75.36;101588.41;5031815;28;20030;-92
2023/08/11 01:37:59;;;;;;;0.10;0.10;;;;;;;17.60;75.72;101633.34;5032078;28;20499;-92
2023/08/11 01:40:26;;;;;;;0.10;0.10;;;;;;;17.57;75.85;101625.69;5031933;28;20545;-92
2023/08/11 01:42:51;;;;;;;0.10;0.10;;;;;;;17.61;75.78;101627.19;5031770;28;20079;-91
2023/08/11 01:45:17;;;;;;;0.10;0.10;;;;;;;17.54;75.43;101617.19;5031829;28;20037;-92
2023/08/11 01:47:46;;;;;;;0.10;0.10;;;;;;;17.50;75.97;101621.75;5031627;28;20025;-90
2023/08/11 01:50:11;;;;;;;0.10;0.10;;;;;;;17.41;76.23;101617.13;5031747;28;20034;-92
2023/08/11 01:52:42;;;;;;;0.10;0.10;;;;;;;17.43;76.25;101618.69;5048344;28;20126;-91
2023/08/11 01:55:11;;;;;;;0.20;0.20;;;;;;;17.37;76.25;101618.22;5047851;28;20049;-90
2023/08/11 01:57:37;;;;;;;0.10;0.10;;;;;;;17.39;76.34;101626.81;5031291;28;20079;-92
2023/08/11 02:00:09;;;;;;;0.10;0.10;;;;;;;17.34;77.18;101621.03;5031580;28;20120;-90
2023/08/11 02:02:37;;;;;;;0.10;0.10;;;;;;;17.44;76.65;101622.16;5047438;28;20025;-92
2023/08/11 02:05:06;;;;;;;0.10;0.10;;;;;;;17.40;76.67;101625.88;5031482;28;20491;-92
2023/08/11 02:07:32;;;;;;;0.10;0.10;;;;;;;17.44;76.29;101624.78;5031278;28;20029;-92
2023/08/11 02:09:57;;;;;;;0.10;0.10;;;;;;;17.37;76.21;101626.06;5031480;28;20025;-92
2023/08/11 02:12:23;;;;;;;0.20;0.20;;;;;;;17.29;76.75;101613.47;5031212;28;20029;-93
2023/08/11 02:14:48;;;;;;;0.10;0.10;;;;;;;17.35;76.80;101627.94;5031358;28;20415;-92
2023/08/11 02:17:14;;;;;;;0.10;0.10;;;;;;;17.38;76.20;101618.13;5031319;28;20021;-92
2023/08/11 02:19:39;;;;;;;0.10;0.10;;;;;;;17.48;75.88;101624.47;5030928;28;20095;-90
2023/08/11 02:22:05;;;;;;;0.10;0.10;;;;;;;17.46;75.40;101618.50;5031206;28;20036;-90
2023/08/11 02:24:30;;;;;;;0.10;0.10;;;;;;;17.39;75.92;101614.56;5031339;28;20029;-92
2023/08/11 02:26:56;;;;;;;0.10;0.10;;;;;;;17.33;76.66;101617.59;5030742;28;20022;-90
2023/08/11 02:29:22;;;;;;;0.10;0.10;;;;;;;17.43;76.17;101610.84;5031066;28;20034;-91
2023/08/11 02:31:47;;;;;;;0.10;0.10;;;;;;;17.47;76.01;101616.72;5030923;28;20025;-90
2023/08/11 02:34:13;;;;;;;0.10;0.10;;;;;;;17.45;75.79;101622.06;5030909;28;20029;-90
2023/08/11 02:36:38;;;;;;;0.10;0.10;;;;;;;17.44;75.83;101611.69;5030913;28;20033;-92
2023/08/11 02:39:05;;;;;;;0.10;0.10;;;;;;;17.41;76.10;101623.19;5047664;28;20029;-92
2023/08/11 02:41:31;;;;;;;0.10;0.10;;;;;;;17.35;76.25;101618.31;5030488;28;20076;-92
2023/08/11 02:43:57;;;;;;;0.10;0.10;;;;;;;17.48;76.14;101623.63;5030840;28;20530;-94
2023/08/11 02:46:23;;;;;;;0.10;0.10;;;;;;;17.34;75.96;101619.25;5030247;28;20052;-92
2023/08/11 02:48:48;;;;;;;0.10;0.10;;;;;;;17.38;75.90;101628.59;5030759;28;20091;-91
2023/08/11 02:51:14;;;;;;;0.10;0.10;;;;;;;17.36;75.92;101633.09;5047417;28;20029;-92
2023/08/11 02:53:39;;;;;;;0.10;0.10;;;;;;;17.33;75.44;101632.44;5030403;28;20053;-92
2023/08/11 02:56:07;;;;;;;0.10;0.10;;;;;;;17.39;75.79;101640.72;5030394;28;20036;-90
2023/08/11 02:58:33;;;;;;;0.10;0.10;;;;;;;17.28;76.32;101630.09;5030638;28;20080;-92
2023/08/11 03:01:00;;;;;;;0.20;0.20;;;;;;;17.36;75.92;101635.69;5030480;28;20033;-91
2023/08/11 03:03:26;;;;;;;0.20;0.20;;;;;;;17.39;75.89;101638.13;5030498;28;20033;-92
2023/08/11 03:05:51;;;;;;;0.10;0.10;;;;;;;17.41;75.07;101633.66;5030932;28;20044;-91
2023/08/11 03:08:16;;;;;;;0.10;0.10;;;;;;;17.43;75.51;101641.41;5030946;28;20030;-91
2023/08/11 03:10:42;;;;;;;0.10;0.10;;;;;;;17.51;75.48;101633.09;5032377;28;20034;-92
2023/08/11 03:13:28;;;;;;;0.10;0.10;;;;;;;17.81;74.12;101631.19;5032285;28;20037;-93
2023/08/11 03:15:58;;;;;;;0.10;0.10;;;;;;;17.99;73.80;101648.38;5031944;28;20037;-92
2023/08/11 03:21:50;;;;;;;0.10;0.10;;;;;;;18.13;72.12;101654.47;5033275;28;20051;-92
2023/08/11 03:24:39;;;;;;;0.10;0.10;;;;;;;17.93;72.27;101658.38;5031871;28;20116;-93
2023/08/11 03:27:08;;;;;;;0.10;0.10;;;;;;;17.74;72.73;101645.59;5032920;28;20029;-92
2023/08/11 03:29:36;;;;;;;0.10;0.10;;;;;;;17.65;73.02;101646.16;5018752;28;20033;-92
2023/08/11 03:32:02;;;;;;;0.15;0.15;;;;;;;17.63;74.41;101642.78;5017429;28;20025;-91
2023/08/11 03:34:28;;;;;;;0.10;0.10;;;;;;;17.64;73.04;101639.22;5017220;28;20033;-91
2023/08/11 03:36:53;;;;;;;0.10;0.10;;;;;;;17.66;74.36;101648.66;5033772;28;20075;-92
2023/08/11 03:39:19;;;;;;;0.10;0.10;;;;;;;17.64;73.04;101640.06;5017219;28;20029;-92
2023/08/11 03:41:44;;;;;;;0.20;0.20;;;;;;;17.56;74.48;101636.25;5016921;28;20051;-93
2023/08/11 03:44:10;;;;;;;0.10;0.10;;;;;;;17.59;73.69;101649.13;5017029;28;20060;-93
2023/08/11 03:46:35;;;;;;;0.10;0.10;;;;;;;17.64;73.17;101644.47;5017096;28;20025;-94
2023/08/11 03:49:01;;;;;;;0.10;0.10;;;;;;;17.73;72.84;101642.16;5017051;28;20483;-92
2023/08/11 03:51:26;;;;;;;0.10;0.10;;;;;;;17.87;71.94;101643.88;5016818;28;20021;-92
2023/08/11 03:53:52;;;;;;;0.10;0.10;;;;;;;18.31;70.31;101645.44;5021540;28;20059;-90
2023/08/11 03:56:18;;;;;;;0.10;0.10;;;;;;;18.77;67.65;101645.03;5016606;28;20072;-91
2023/08/11 03:58:43;;;;;;;0.10;0.10;;;;;;;18.65;68.36;101648.47;5017993;28;20029;-92
2023/08/11 04:01:09;;;;;;;0.10;0.10;;;;;;;19.09;66.53;101635.00;5036067;28;20025;-90
2023/08/11 04:03:34;;;;;;;0.10;0.10;;;;;;;18.80;67.67;101647.47;5046099;28;20033;-92
2023/08/11 04:06:00;;;;;;;0.10;0.10;;;;;;;18.97;68.84;101644.50;5058019;28;20036;-91
2023/08/11 04:08:27;;;;;;;0.10;0.10;;;;;;;19.08;66.56;101634.16;5049377;28;20124;-90
2023/08/11 04:10:53;;;;;;;0.10;0.10;;;;;;;19.05;66.81;101647.47;5059853;28;20114;-92
2023/08/11 04:13:19;;;;;;;0.10;0.10;;;;;;;19.01;66.26;101651.25;5064753;28;20032;-91
2023/08/11 04:15:45;;;;;;;0.10;0.10;;;;;;;18.93;66.91;101627.31;5052828;28;20028;-91
2023/08/11 04:18:12;;;;;;;0.20;0.20;;;;;;;18.92;65.44;101609.91;5030455;28;20477;-89
2023/08/11 04:20:37;;;;;;;0.10;0.10;;;;;;;18.83;66.28;101655.94;5038795;28;20021;-91
2023/08/11 04:23:03;;;;;;;0.10;0.10;;;;;;;18.27;67.23;101629.06;5019208;28;20036;-86
2023/08/11 04:25:29;;;;;;;0.10;0.10;;;;;;;18.32;68.58;101658.44;5036228;28;20055;-88
2023/08/11 04:27:55;;;;;;;0.10;0.10;;;;;;;18.11;68.84;101648.50;5052845;28;20123;-85
2023/08/11 04:30:30;;;;;;;0.10;0.10;;;;;;;18.29;69.39;101663.03;5055072;28;20401;-94
2023/08/11 04:32:55;;;;;;;0.20;0.20;;;;;;;18.70;68.44;101656.88;5025351;28;20033;-87
2023/08/11 04:35:21;;;;;;;0.10;0.10;;;;;;;18.97;66.30;101660.25;5058120;28;20563;-91
2023/08/11 04:37:46;;;;;;;0.13;0.13;;;;;;;19.04;66.90;101661.53;5039387;28;20020;-94
2023/08/11 04:40:13;;;;;;;0.10;0.10;;;;;;;19.30;64.88;101664.16;5023210;28;20025;-88
2023/08/11 04:42:39;;;;;;;0.20;0.20;;;;;;;19.53;64.83;101673.88;5056448;28;20036;-89
2023/08/11 04:45:05;;;;;;;0.10;0.10;;;;;;;19.53;64.88;101673.88;5055698;28;20033;-88
2023/08/11 04:47:31;;;;;;;0.10;0.10;;;;;;;19.87;62.80;101674.16;5056656;28;20032;-90
2023/08/11 04:49:57;;;;;;;0.20;0.20;;;;;;;19.91;63.60;101670.38;5023493;28;20109;-92
2023/08/11 04:52:22;;;;;;;0.10;0.10;;;;;;;19.90;63.08;101692.31;5041625;28;20032;-90
2023/08/11 04:54:48;;;;;;;0.10;0.10;;;;;;;19.96;63.08;101692.75;5020125;28;20056;-89
2023/08/11 04:57:16;;;;;;;0.20;0.20;;;;;;;19.86;63.43;101698.72;5052134;28;20029;-91
2023/08/11 04:59:42;;;;;;;0.20;0.20;;;;;;;19.51;64.44;101694.16;5072738;28;20025;-94
2023/08/11 05:02:07;;;;;;;0.10;0.10;;;;;;;18.95;66.10;101690.16;5018925;28;20029;-86
2023/08/11 05:04:33;;;;;;;0.10;0.10;;;;;;;19.16;66.02;101694.78;5034645;28;20482;-88
2023/08/11 05:06:59;;;;;;;0.10;0.10;;;;;;;19.12;65.95;101690.69;5037398;28;20060;-85
2023/08/11 05:09:24;;;;;;;0.20;0.20;;;;;;;19.18;66.81;101692.91;5052101;28;20106;-93
2023/08/11 05:11:50;;;;;;;0.10;0.10;;;;;;;19.08;66.55;101696.28;5041821;28;20081;-91
2023/08/11 05:14:17;;;;;;;0.10;0.10;;;;;;;18.88;66.90;101687.97;5045445;28;20035;-89
2023/08/11 05:16:43;;;;;;;0.10;0.10;;;;;;;18.81;67.82;101675.34;5038177;28;20068;-86
2023/08/11 05:19:09;;;;;;;0.10;0.10;;;;;;;18.84;68.34;101696.13;5066944;28;20087;-90
2023/08/11 05:21:36;;;;;;;0.10;0.10;;;;;;;18.92;67.88;101699.06;5053794;28;20032;-89
2023/08/11 05:24:02;;;;;;;0.10;0.10;;;;;;;18.93;68.56;101700.75;5054684;28;20032;-91
2023/08/11 05:26:27;;;;;;;0.10;0.10;;;;;;;18.83;68.92;101700.53;5040917;28;20051;-90
2023/08/11 05:28:53;;;;;;;0.10;0.10;;;;;;;18.78;68.91;101681.66;5037814;28;20033;-90
2023/08/11 05:31:28;;;;;;;0.10;0.10;;;;;;;18.93;69.42;101690.25;5021939;28;20047;-93
2023/08/11 05:33:55;;;;;;;0.20;0.20;;;;;;;18.99;69.59;101686.41;5061076;28;20520;-89
2023/08/11 05:36:20;;;;;;;0.10;0.10;;;;;;;19.08;69.37;101704.97;5054648;28;20115;-87
2023/08/11 05:38:46;;;;;;;0.10;0.10;;;;;;;19.08;68.87;101686.63;5039019;28;20501;-92
2023/08/11 05:41:11;;;;;;;0.10;0.10;;;;;;;19.16;68.34;101697.41;5040113;28;20070;-87
2023/08/11 05:43:37;;;;;;;0.20;0.20;;;;;;;19.24;68.87;101698.66;5042547;28;20416;-92
2023/08/11 05:46:06;;;;;;;0.10;0.10;;;;;;;19.34;69.45;101694.47;5023484;28;20028;-91
2023/08/11 05:48:32;;;;;;;0.10;0.10;;;;;;;19.47;68.94;101709.28;5056691;28;20081;-88
2023/08/11 05:50:57;;;;;;;0.10;0.10;;;;;;;19.54;68.37;101696.56;5021281;28;20024;-89
2023/08/11 05:53:23;;;;;;;0.10;0.10;;;;;;;19.64;68.14;101707.28;5025351;28;20543;-89
2023/08/11 05:55:48;;;;;;;0.10;0.10;;;;;;;19.87;68.04;101713.56;5074159;28;20035;-90
2023/08/11 05:58:14;;;;;;;0.10;0.10;;;;;;;20.00;67.78;101704.69;5057394;28;20504;-86
2023/08/11 06:00:39;;;;;;;0.20;0.20;;;;;;;20.05;66.87;101704.34;5049394;28;20032;-86
2023/08/11 06:03:04;;;;;;;0.10;0.10;;;;;;;20.13;66.31;101704.63;5053605;28;20020;-85
2023/08/11 06:05:30;;;;;;;0.15;0.15;;;;;;;20.24;66.32;101702.06;5037543;28;20040;-85
2023/08/11 06:07:56;;;;;;;0.10;0.10;;;;;;;20.63;64.59;101721.16;5033699;28;20021;-85
2023/08/11 06:10:21;;;;;;;0.10;0.10;;;;;;;21.02;65.27;101708.63;5050650;28;20028;-87
2023/08/11 06:12:47;;;;;;;0.20;0.20;;;;;;;21.41;64.11;101702.97;5017767;28;20120;-91
2023/08/11 06:15:12;;;;;;;0.20;0.20;;;;;;;21.46;62.66;101703.44;5051851;28;20484;-86
2023/08/11 06:17:38;;;;;;;0.10;0.10;;;;;;;21.55;62.42;101707.16;5032918;28;20025;-87
2023/08/11 06:20:05;;;;;;;0.10;0.10;;;;;;;21.25;60.85;101694.56;5045127;28;20052;-87
2023/08/11 06:22:31;;;;;;;0.10;0.10;;;;;;;21.38;59.14;101716.38;5016319;28;20025;-93
2023/08/11 06:24:57;;;;;;;0.20;0.20;;;;;;;21.36;59.49;101707.75;5037429;28;20124;-87
2023/08/11 06:27:31;;;;;;;0.10;0.10;;;;;;;21.42;59.71;101709.91;5037856;28;20029;-92
2023/08/11 06:29:56;;;;;;;0.10;0.10;;;;;;;21.31;58.91;101694.09;5043270;28;20058;-93
2023/08/11 06:32:22;;;;;;;0.10;0.10;;;;;;;21.55;58.97;101715.06;5060878;28;20489;-90
2023/08/11 06:34:47;;;;;;;0.20;0.20;;;;;;;21.59;59.20;101708.59;5057951;28;20029;-89
2023/08/11 06:37:13;;;;;;;0.20;0.20;;;;;;;21.76;58.49;101709.91;5050254;28;20471;-92
2023/08/11 06:39:38;;;;;;;0.20;0.20;;;;;;;21.64;57.62;101693.28;5034782;28;20425;-92
2023/08/11 06:42:04;;;;;;;0.15;0.15;;;;;;;21.87;56.02;101706.41;5037989;28;20034;-88
2023/08/11 06:44:29;;;;;;;0.10;0.10;;;;;;;21.97;57.33;101713.47;5055038;28;20110;-88
2023/08/11 06:46:55;;;;;;;0.10;0.10;;;;;;;22.37;57.50;101720.00;5025850;28;20028;-92
2023/08/11 06:49:20;;;;;;;0.10;0.10;;;;;;;22.49;56.82;101711.91;5027772;28;20043;-90
2023/08/11 06:51:46;;;;;;;0.20;0.20;;;;;;;22.74;56.31;101723.09;5055294;28;20035;-90
2023/08/11 06:54:11;;;;;;;0.10;0.10;;;;;;;22.78;55.52;101714.78;5035337;28;20052;-88
2023/08/11 06:56:36;;;;;;;0.10;0.10;;;;;;;22.82;54.95;101720.66;5052679;28;20437;-93
2023/08/11 06:59:02;;;;;;;0.10;0.10;;;;;;;22.58;54.69;101723.50;5041468;28;20032;-93
2023/08/11 07:01:28;;;;;;;0.20;0.20;;;;;;;22.81;56.46;101724.22;5021312;28;20478;-91
2023/08/11 07:03:53;;;;;;;0.20;0.20;;;;;;;22.91;56.41;101719.91;5042221;28;20329;-92
2023/08/11 07:06:18;;;;;;;0.10;0.10;;;;;;;22.95;54.98;101700.22;5042026;28;20040;-87
2023/08/11 07:08:44;;;;;;;0.10;0.10;;;;;;;23.06;55.07;101715.13;5036171;28;20465;-91
2023/08/11 07:11:09;;;;;;;0.17;0.17;;;;;;;23.20;54.62;101717.44;5037280;28;20036;-93
2023/08/11 07:13:35;;;;;;;0.10;0.10;;;;;;;23.22;54.66;101714.69;5036954;28;20033;-90
2023/08/11 07:16:01;;;;;;;0.10;0.10;;;;;;;23.31;51.95;101705.97;5051622;28;20032;-87
2023/08/11 07:18:27;;;;;;;0.17;0.17;;;;;;;23.37;51.27;101710.72;5052244;28;20450;-88
2023/08/11 07:20:53;;;;;;;0.10;0.10;;;;;;;23.39;51.39;101706.97;5035805;28;20717;-89
2023/08/11 07:23:18;;;;;;;0.10;0.10;;;;;;;23.52;51.58;101719.97;5021391;28;20021;-89
2023/08/11 07:25:44;;;;;;;0.10;0.10;;;;;;;23.63;51.75;101714.63;5053424;28;20081;-93
2023/08/11 07:28:09;;;;;;;0.10;0.10;;;;;;;23.75;51.50;101716.19;5037017;28;20032;-92
2023/08/11 07:30:36;;;;;;;0.10;0.10;;;;;;;23.94;50.88;101730.44;5035145;28;20512;-89
2023/08/11 07:33:02;;;;;;;0.10;0.10;;;;;;;24.03;51.11;101732.25;5058372;28;20032;-93
2023/08/11 07:35:27;;;;;;;0.10;0.10;;;;;;;24.10;50.01;101736.03;5054274;28;20036;-90
2023/08/11 07:37:53;;;;;;;0.10;0.10;;;;;;;23.95;49.88;101705.66;5024210;28;20025;-90
2023/08/11 07:40:18;;;;;;;0.20;0.20;;;;;;;24.16;48.75;101740.78;5069876;28;20089;-87
2023/08/11 07:42:44;;;;;;;0.10;0.10;;;;;;;24.26;49.61;101730.22;5094191;28;20024;-87
2023/08/11 07:45:10;;;;;;;0.10;0.10;;;;;;;24.29;48.91;101733.44;5058984;28;20036;-89
2023/08/11 07:47:36;;;;;;;0.20;0.20;;;;;;;24.39;48.78;101735.28;5062662;28;20489;-93
2023/08/11 07:50:02;;;;;;;0.20;0.20;;;;;;;24.25;48.80;101739.13;5069182;28;20067;-85
2023/08/11 07:52:28;;;;;;;0.10;0.10;;;;;;;24.35;48.38;101728.59;5039946;28;20029;-86
2023/08/11 07:54:53;;;;;;;0.10;0.10;;;;;;;24.42;47.61;101735.84;5062048;28;20055;-91
2023/08/11 07:57:19;;;;;;;0.20;0.20;;;;;;;24.47;47.86;101722.19;5023008;28;20071;-91
2023/08/11 07:59:44;;;;;;;0.10;0.10;;;;;;;24.59;48.29;101729.03;5057254;28;20029;-92
2023/08/11 08:02:12;;;;;;;0.20;0.20;;;;;;;24.71;48.06;101735.84;5039107;28;20098;-92
2023/08/11 08:04:37;;;;;;;0.20;0.20;;;;;;;24.81;47.28;101735.84;5047386;28;20035;-93
2023/08/11 08:07:03;;;;;;;0.20;0.20;;;;;;;24.86;48.41;101733.59;5024295;28;20036;-92
2023/08/11 08:09:28;;;;;;;0.20;0.20;;;;;;;24.94;46.78;101732.88;5023168;28;20024;-92
2023/08/11 08:11:54;;;;;;;0.20;0.20;;;;;;;25.05;47.25;101732.75;5023601;28;20028;-90
2023/08/11 08:14:19;;;;;;;0.20;0.20;;;;;;;24.99;46.91;101734.16;5018437;28;20029;-86
2023/08/11 08:16:45;;;;;;;0.20;0.20;;;;;;;25.10;46.98;101728.72;5072232;28;20040;-92
2023/08/11 08:19:11;;;;;;;0.20;0.20;;;;;;;25.09;46.47;101718.28;5038262;28;20035;-88
2023/08/11 08:21:37;;;;;;;0.20;0.20;;;;;;;25.21;47.11;101724.22;5041715;28;20020;-90
2023/08/11 08:24:07;;;;;;;0.20;0.20;;;;;;;25.31;48.67;101715.28;5029712;28;20039;-93
2023/08/11 08:26:33;;;;;;;0.20;0.20;;;;;;;25.44;47.21;101723.72;5171543;22;20038;-87
2023/08/11 08:29:07;;;;;;;0.20;0.20;;;;;;;25.34;47.09;101679.72;5043732;28;20486;-94
2023/08/11 08:31:33;;;;;;;0.20;0.20;;;;;;;25.68;45.78;101717.09;5059783;28;20047;-93
2023/08/11 08:33:59;;;;;;;0.10;0.10;;;;;;;25.67;45.99;101723.38;5042490;28;20017;-91
2023/08/11 08:36:24;;;;;;;0.20;0.20;;;;;;;25.70;45.51;101712.50;5063512;28;20540;-90
2023/08/11 08:38:50;;;;;;;0.20;0.20;;;;;;;25.93;45.08;101724.34;5042921;28;20032;-90
2023/08/11 08:41:18;;;;;;;0.20;0.20;;;;;;;25.97;43.85;101707.19;5075842;28;20032;-90
2023/08/11 08:43:44;;;;;;;0.20;0.20;;;;;;;26.08;44.57;101705.31;5042649;28;20058;-91
2023/08/11 08:46:09;;;;;;;0.20;0.20;;;;;;;26.08;43.75;101706.13;5057447;28;20028;-84
2023/08/11 08:48:55;;;;;;;0.10;0.10;;;;;;;26.17;44.70;101715.84;5093157;28;20035;-86
2023/08/11 08:51:20;;;;;;;0.10;0.10;;;;;;;26.20;43.33;101712.06;5060733;28;20035;-90
2023/08/11 08:53:46;;;;;;;0.20;0.20;;;;;;;26.29;42.62;101708.50;5060264;28;20036;-90
2023/08/11 08:56:12;;;;;;;0.20;0.20;;;;;;;26.24;42.35;101708.09;5058974;28;20039;-86
2023/08/11 08:58:38;;;;;;;0.17;0.17;;;;;;;26.27;43.28;101694.56;5073594;28;20024;-91
2023/08/11 09:01:03;;;;;;;0.20;0.20;;;;;;;26.54;43.20;101702.44;5075362;28;20043;-92
2023/08/11 09:03:30;;;;;;;0.13;0.13;;;;;;;26.73;43.59;101714.69;5046929;28;20481;-94
2023/08/11 09:05:55;;;;;;;0.20;0.20;;;;;;;26.61;42.04;101701.84;5049859;28;20044;-90
2023/08/11 09:08:21;;;;;;;0.10;0.10;;;;;;;26.53;43.17;101686.69;5056574;28;20028;-84
2023/08/11 09:10:46;;;;;;;0.10;0.10;;;;;;;26.47;42.76;101682.84;5082958;28;20032;-82
2023/08/11 09:13:14;;;;;;;0.20;0.20;;;;;;;26.73;42.39;101708.56;5040741;28;20040;-83
2023/08/11 09:15:39;;;;;;;0.20;0.20;;;;;;;26.82;43.46;101699.69;5074786;28;20032;-83
2023/08/11 09:18:06;;;;;;;0.20;0.20;;;;;;;27.06;42.59;101699.88;5073582;28;20032;-84
2023/08/11 09:20:31;;;;;;;0.20;0.20;;;;;;;27.09;42.63;101704.03;5057580;28;20032;-83
2023/08/11 09:22:58;;;;;;;0.20;0.20;;;;;;;27.11;43.01;101705.53;5057149;28;20573;-83
2023/08/11 09:25:23;;;;;;;0.20;0.20;;;;;;;27.11;41.47;101700.22;5073362;28;20032;-84
2023/08/11 09:27:50;;;;;;;0.20;0.20;;;;;;;27.12;41.28;101680.66;5052996;28;20056;-87
2023/08/11 09:30:16;;;;;;;0.20;0.20;;;;;;;27.11;41.05;101694.91;5092907;28;20027;-93
2023/08/11 09:32:46;;;;;;;0.20;0.20;;;;;;;27.13;41.16;101682.31;5061819;28;20030;-90
2023/08/11 09:35:12;;;;;;;0.20;0.20;;;;;;;27.27;40.14;101685.38;5077460;28;20411;-88
2023/08/11 09:37:38;;;;;;;0.20;0.20;;;;;;;27.26;39.75;101681.06;5059129;28;20118;-88
2023/08/11 09:40:05;;;;;;;0.20;0.20;;;;;;;27.29;39.16;101696.69;5073450;28;20031;-87
2023/08/11 09:42:31;;;;;;;0.20;0.20;;;;;;;27.26;40.05;101697.84;5060448;28;20485;-90
2023/08/11 09:44:56;;;;;;;0.20;0.20;;;;;;;27.34;39.94;101700.53;5077783;28;20067;-88
2023/08/11 09:47:22;;;;;;;0.20;0.20;;;;;;;27.38;40.79;101677.97;5077592;28;20137;-85
2023/08/11 09:49:47;;;;;;;0.20;0.20;;;;;;;27.65;40.47;101700.00;5060736;28;20055;-86
2023/08/11 09:52:13;;;;;;;0.20;0.20;;;;;;;27.64;40.31;101687.72;5064957;28;20094;-89
2023/08/11 09:54:40;;;;;;;0.20;0.20;;;;;;;27.82;38.21;101693.75;5073625;28;20516;-88
2023/08/11 09:57:06;;;;;;;0.20;0.20;;;;;;;27.71;38.58;101684.25;5056788;28;20024;-86
2023/08/11 09:59:31;;;;;;;0.20;0.20;;;;;;;27.91;38.92;101684.81;5056840;28;20035;-86
2023/08/11 10:01:57;;;;;;;0.20;0.20;;;;;;;28.09;38.44;101684.69;5062969;28;20032;-85
2023/08/11 10:04:23;;;;;;;0.20;0.20;;;;;;;27.92;38.32;101680.31;5055643;28;20055;-88
2023/08/11 10:06:51;;;;;;;0.20;0.20;;;;;;;27.92;39.10;101693.63;5071411;28;20516;-85
2023/08/11 10:09:16;;;;;;;0.20;0.20;;;;;;;28.00;38.19;101694.47;5055319;28;20046;-84
2023/08/11 10:11:42;;;;;;;0.20;0.20;;;;;;;27.93;38.09;101672.22;5052540;28;20029;-86
2023/08/11 10:14:07;;;;;;;0.20;0.20;;;;;;;28.07;38.87;101681.38;5035479;28;20067;-86
2023/08/11 10:16:33;;;;;;;0.20;0.20;;;;;;;28.07;38.46;101659.25;5045591;28;20512;-84
2023/08/11 10:18:59;;;;;;;0.20;0.20;;;;;;;27.98;38.48;101666.38;5072989;28;20032;-87
2023/08/11 10:21:24;;;;;;;0.20;0.20;;;;;;;28.19;37.84;101661.41;5073483;28;20057;-88
2023/08/11 10:23:50;;;;;;;0.20;0.20;;;;;;;28.21;38.27;101662.06;5057248;28;20063;-87
2023/08/11 10:26:15;;;;;;;0.20;0.20;;;;;;;28.20;38.29;101679.03;5074289;28;20032;-85
2023/08/11 10:28:41;;;;;;;0.20;0.20;;;;;;;28.22;38.18;101671.75;5053042;28;20603;-86
2023/08/11 10:31:06;;;;;;;0.20;0.20;;;;;;;28.38;36.95;101662.13;5072636;28;20024;-88
2023/08/11 10:33:32;;;;;;;0.20;0.20;;;;;;;28.40;37.19;101668.94;5056125;28;20028;-86
2023/08/11 10:35:59;;;;;;;0.20;0.20;;;;;;;28.29;37.11;101658.63;5056022;28;20036;-89
2023/08/11 10:38:26;;;;;;;0.20;0.20;;;;;;;28.36;36.43;101662.28;5062614;28;20024;-88
2023/08/11 10:40:57;;;;;;;0.20;0.20;;;;;;;28.24;37.33;101635.16;5071096;28;20039;-86
2023/08/11 10:43:27;;;;;;;0.20;0.20;;;;;;;28.59;37.87;101654.47;5050000;28;20027;-87
2023/08/11 10:45:53;;;;;;;0.20;0.20;;;;;;;28.73;38.07;101655.63;5056850;28;20020;-87
2023/08/11 10:48:21;;;;;;;0.20;0.20;;;;;;;28.86;36.39;101655.91;5056026;28;20097;-86
2023/08/11 10:50:46;;;;;;;0.20;0.20;;;;;;;28.78;36.63;101646.13;5039566;28;20058;-85
2023/08/11 10:53:19;;;;;;;0.20;0.20;;;;;;;28.67;35.55;101643.81;5055515;28;20410;-86
2023/08/11 10:56:01;;;;;;;0.20;0.20;;;;;;;28.73;36.06;101640.47;5039828;28;20024;-89
2023/08/11 10:58:29;;;;;;;0.20;0.20;;;;;;;28.47;36.85;101618.53;5056143;28;20032;-85
2023/08/11 11:00:55;;;;;;;0.20;0.20;;;;;;;28.65;36.97;101626.34;5051064;28;20545;-90
2023/08/11 11:03:21;;;;;;;0.20;0.20;;;;;;;28.78;37.96;101638.13;5069404;28;20032;-90
2023/08/11 11:05:46;;;;;;;0.20;0.20;;;;;;;28.88;37.78;101645.09;5089281;28;20074;-86
2023/08/11 11:08:12;;;;;;;0.20;0.20;;;;;;;28.97;36.57;101620.13;5092199;28;20036;-86
2023/08/11 11:10:37;;;;;;;0.20;0.20;;;;;;;28.93;35.53;101648.13;5092556;28;20035;-87
2023/08/11 11:13:03;;;;;;;0.20;0.20;;;;;;;28.81;36.58;101634.31;5092424;28;20500;-89
2023/08/11 11:15:29;;;;;;;0.20;0.20;;;;;;;29.07;35.83;101636.75;5073264;28;20043;-87
2023/08/11 11:17:55;;;;;;;0.20;0.20;;;;;;;29.21;34.12;101638.72;5059143;28;20122;-88
2023/08/11 11:20:21;;;;;;;0.20;0.20;;;;;;;29.18;35.32;101632.88;5075870;28;20020;-84
2023/08/11 11:22:49;;;;;;;0.20;0.20;;;;;;;29.04;34.64;101632.59;5076220;28;20079;-90
2023/08/11 11:25:20;;;;;;;0.20;0.20;;;;;;;29.02;34.26;101628.47;5091533;28;20015;-86